sensor_id;sensor_type;location;lat;lon;timestamp;temperature;humidity
75022;SHT31;63583;49.976;20.182;2023-08-12T00:01:50;15.83;72.04
75022;SHT31;63583;49.976;20.182;2023-08-12T00:04:16;15.84;71.95
75022;SHT31;63583;49.976;20.182;2023-08-12T00:06:42;15.81;72.32
75022;SHT31;63583;49.976;20.182;2023-08-12T00:09:09;15.84;72.25
75022;SHT31;63583;49.976;20.182;2023-08-12T00:11:37;15.77;72.42
75022;SHT31;63583;49.976;20.182;2023-08-12T00:14:02;15.63;72.85
75022;SHT31;63583;49.976;20.182;2023-08-12T00:16:28;15.57;72.63
75022;SHT31;63583;49.976;20.182;2023-08-12T00:18:54;15.49;72.75
75022;SHT31;63583;49.976;20.182;2023-08-12T00:21:19;15.44;72.95
75022;SHT31;63583;49.976;20.182;2023-08-12T00:23:45;15.39;72.92
75022;SHT31;63583;49.976;20.182;2023-08-12T00:26:13;15.53;72.25
75022;SHT31;63583;49.976;20.182;2023-08-12T00:28:38;15.50;71.97
75022;SHT31;63583;49.976;20.182;2023-08-12T00:31:04;15.50;71.78
75022;SHT31;63583;49.976;20.182;2023-08-12T00:33:30;15.51;72.48
75022;SHT31;63583;49.976;20.182;2023-08-12T00:35:55;15.47;73.03
75022;SHT31;63583;49.976;20.182;2023-08-12T00:38:21;15.36;73.45
75022;SHT31;63583;49.976;20.182;2023-08-12T00:40:48;15.33;73.52
75022;SHT31;63583;49.976;20.182;2023-08-12T00:43:14;15.35;73.40
75022;SHT31;63583;49.976;20.182;2023-08-12T00:45:40;15.38;73.22
75022;SHT31;63583;49.976;20.182;2023-08-12T00:48:07;15.32;73.25
75022;SHT31;63583;49.976;20.182;2023-08-12T00:50:34;15.36;73.12
75022;SHT31;63583;49.976;20.182;2023-08-12T00:53:01;15.32;73.42
75022;SHT31;63583;49.976;20.182;2023-08-12T00:55:27;15.32;73.41
75022;SHT31;63583;49.976;20.182;2023-08-12T00:57:53;15.30;73.15
75022;SHT31;63583;49.976;20.182;2023-08-12T01:00:19;15.30;72.75
75022;SHT31;63583;49.976;20.182;2023-08-12T01:02:46;15.26;72.37
75022;SHT31;63583;49.976;20.182;2023-08-12T01:05:17;15.32;72.04
75022;SHT31;63583;49.976;20.182;2023-08-12T01:07:43;15.29;71.99
75022;SHT31;63583;49.976;20.182;2023-08-12T01:10:10;15.36;71.97
75022;SHT31;63583;49.976;20.182;2023-08-12T01:12:58;15.38;72.07
75022;SHT31;63583;49.976;20.182;2023-08-12T01:15:25;15.30;72.21
75022;SHT31;63583;49.976;20.182;2023-08-12T01:17:53;15.38;72.20
75022;SHT31;63583;49.976;20.182;2023-08-12T01:20:23;15.30;72.33
75022;SHT31;63583;49.976;20.182;2023-08-12T01:22:57;15.23;72.51
75022;SHT31;63583;49.976;20.182;2023-08-12T01:25:26;15.12;72.74
75022;SHT31;63583;49.976;20.182;2023-08-12T01:27:51;15.12;72.81
75022;SHT31;63583;49.976;20.182;2023-08-12T01:30:18;15.22;72.69
75022;SHT31;63583;49.976;20.182;2023-08-12T01:32:52;15.35;71.89
75022;SHT31;63583;49.976;20.182;2023-08-12T01:36:20;15.25;72.43
75022;SHT31;63583;49.976;20.182;2023-08-12T01:38:28;15.16;72.79
75022;SHT31;63583;49.976;20.182;2023-08-12T01:40:56;15.13;72.67
75022;SHT31;63583;49.976;20.182;2023-08-12T01:43:23;15.06;72.99
75022;SHT31;63583;49.976;20.182;2023-08-12T01:45:49;15.02;73.03
75022;SHT31;63583;49.976;20.182;2023-08-12T01:48:15;15.01;73.23
75022;SHT31;63583;49.976;20.182;2023-08-12T01:50:40;14.96;73.47
75022;SHT31;63583;49.976;20.182;2023-08-12T01:53:12;14.95;73.68
75022;SHT31;63583;49.976;20.182;2023-08-12T01:55:38;14.91;73.71
75022;SHT31;63583;49.976;20.182;2023-08-12T01:58:04;14.91;73.77
75022;SHT31;63583;49.976;20.182;2023-08-12T02:00:29;14.77;74.58
75022;SHT31;63583;49.976;20.182;2023-08-12T02:02:55;14.77;74.44
75022;SHT31;63583;49.976;20.182;2023-08-12T02:05:21;14.68;74.65
75022;SHT31;63583;49.976;20.182;2023-08-12T02:07:46;14.75;74.38
75022;SHT31;63583;49.976;20.182;2023-08-12T02:10:12;14.71;74.28
75022;SHT31;63583;49.976;20.182;2023-08-12T02:12:40;14.61;74.58
75022;SHT31;63583;49.976;20.182;2023-08-12T02:15:05;14.68;74.35
75022;SHT31;63583;49.976;20.182;2023-08-12T02:17:31;14.71;73.94
75022;SHT31;63583;49.976;20.182;2023-08-12T02:19:57;14.64;74.15
75022;SHT31;63583;49.976;20.182;2023-08-12T02:22:23;14.57;74.35
75022;SHT31;63583;49.976;20.182;2023-08-12T02:24:48;14.51;74.50
75022;SHT31;63583;49.976;20.182;2023-08-12T02:27:14;14.47;74.77
75022;SHT31;63583;49.976;20.182;2023-08-12T02:29:40;14.40;74.86
75022;SHT31;63583;49.976;20.182;2023-08-12T02:32:05;14.47;74.60
75022;SHT31;63583;49.976;20.182;2023-08-12T02:34:31;14.53;74.41
75022;SHT31;63583;49.976;20.182;2023-08-12T02:36:57;14.54;74.03
75022;SHT31;63583;49.976;20.182;2023-08-12T02:39:22;14.51;74.12
75022;SHT31;63583;49.976;20.182;2023-08-12T02:41:48;14.45;74.06
75022;SHT31;63583;49.976;20.182;2023-08-12T02:44:14;14.38;73.75
75022;SHT31;63583;49.976;20.182;2023-08-12T02:46:40;14.34;73.67
75022;SHT31;63583;49.976;20.182;2023-08-12T02:49:05;14.36;73.19
75022;SHT31;63583;49.976;20.182;2023-08-12T02:51:31;14.34;73.17
75022;SHT31;63583;49.976;20.182;2023-08-12T02:53:56;14.34;72.67
75022;SHT31;63583;49.976;20.182;2023-08-12T02:56:22;14.43;72.46
75022;SHT31;63583;49.976;20.182;2023-08-12T02:58:47;14.48;71.97
75022;SHT31;63583;49.976;20.182;2023-08-12T03:01:13;14.51;72.47
75022;SHT31;63583;49.976;20.182;2023-08-12T03:03:39;14.53;72.32
75022;SHT31;63583;49.976;20.182;2023-08-12T03:06:05;14.51;72.71
75022;SHT31;63583;49.976;20.182;2023-08-12T03:08:31;14.44;72.64
75022;SHT31;63583;49.976;20.182;2023-08-12T03:11:01;14.41;72.70
75022;SHT31;63583;49.976;20.182;2023-08-12T03:13:27;14.40;72.98
75022;SHT31;63583;49.976;20.182;2023-08-12T03:15:55;14.33;73.14
75022;SHT31;63583;49.976;20.182;2023-08-12T03:18:21;14.32;73.18
75022;SHT31;63583;49.976;20.182;2023-08-12T03:20:47;14.30;73.67
75022;SHT31;63583;49.976;20.182;2023-08-12T03:23:14;14.23;74.28
75022;SHT31;63583;49.976;20.182;2023-08-12T03:25:40;14.22;74.63
75022;SHT31;63583;49.976;20.182;2023-08-12T03:28:05;14.20;75.03
75022;SHT31;63583;49.976;20.182;2023-08-12T03:30:31;14.20;75.00
75022;SHT31;63583;49.976;20.182;2023-08-12T03:32:57;14.20;75.03
75022;SHT31;63583;49.976;20.182;2023-08-12T03:35:22;14.19;75.15
75022;SHT31;63583;49.976;20.182;2023-08-12T03:37:48;14.19;75.39
75022;SHT31;63583;49.976;20.182;2023-08-12T03:40:14;14.29;75.12
75022;SHT31;63583;49.976;20.182;2023-08-12T03:42:39;14.40;74.63
75022;SHT31;63583;49.976;20.182;2023-08-12T03:45:06;14.47;74.24
75022;SHT31;63583;49.976;20.182;2023-08-12T03:47:31;14.59;73.78
75022;SHT31;63583;49.976;20.182;2023-08-12T03:49:57;14.70;73.67
75022;SHT31;63583;49.976;20.182;2023-08-12T03:52:23;14.78;73.81
75022;SHT31;63583;49.976;20.182;2023-08-12T03:54:48;14.85;73.63
75022;SHT31;63583;49.976;20.182;2023-08-12T03:57:14;14.95;73.47
75022;SHT31;63583;49.976;20.182;2023-08-12T03:59:40;15.01;73.41
75022;SHT31;63583;49.976;20.182;2023-08-12T04:02:05;15.05;73.67
75022;SHT31;63583;49.976;20.182;2023-08-12T04:04:31;15.05;73.64
75022;SHT31;63583;49.976;20.182;2023-08-12T04:06:57;15.15;73.75
75022;SHT31;63583;49.976;20.182;2023-08-12T04:09:23;15.22;73.52
75022;SHT31;63583;49.976;20.182;2023-08-12T04:11:49;15.32;73.86
75022;SHT31;63583;49.976;20.182;2023-08-12T04:14:14;15.35;73.56
75022;SHT31;63583;49.976;20.182;2023-08-12T04:16:40;15.44;73.28
75022;SHT31;63583;49.976;20.182;2023-08-12T04:19:06;15.61;73.06
75022;SHT31;63583;49.976;20.182;2023-08-12T04:21:32;15.64;73.11
75022;SHT31;63583;49.976;20.182;2023-08-12T04:23:57;15.60;73.22
75022;SHT31;63583;49.976;20.182;2023-08-12T04:26:23;15.66;72.91
75022;SHT31;63583;49.976;20.182;2023-08-12T04:28:48;15.76;72.78
75022;SHT31;63583;49.976;20.182;2023-08-12T04:31:14;15.93;72.54
75022;SHT31;63583;49.976;20.182;2023-08-12T04:33:40;16.09;71.97
75022;SHT31;63583;49.976;20.182;2023-08-12T04:36:06;16.25;71.39
75022;SHT31;63583;49.976;20.182;2023-08-12T04:38:31;16.43;71.62
75022;SHT31;63583;49.976;20.182;2023-08-12T04:40:57;16.60;71.29
75022;SHT31;63583;49.976;20.182;2023-08-12T04:43:23;16.60;71.47
75022;SHT31;63583;49.976;20.182;2023-08-12T04:45:48;16.64;71.58
75022;SHT31;63583;49.976;20.182;2023-08-12T04:48:14;16.88;70.81
75022;SHT31;63583;49.976;20.182;2023-08-12T04:50:42;16.95;69.15
75022;SHT31;63583;49.976;20.182;2023-08-12T04:53:08;17.10;68.77
75022;SHT31;63583;49.976;20.182;2023-08-12T04:55:36;17.35;69.21
75022;SHT31;63583;49.976;20.182;2023-08-12T04:58:03;17.38;68.13
75022;SHT31;63583;49.976;20.182;2023-08-12T05:00:30;17.36;68.86
75022;SHT31;63583;49.976;20.182;2023-08-12T05:02:57;17.70;68.65
75022;SHT31;63583;49.976;20.182;2023-08-12T05:05:23;17.80;67.93
75022;SHT31;63583;49.976;20.182;2023-08-12T05:07:48;17.90;67.64
75022;SHT31;63583;49.976;20.182;2023-08-12T05:10:15;18.07;68.15
75022;SHT31;63583;49.976;20.182;2023-08-12T05:12:42;18.40;66.96
75022;SHT31;63583;49.976;20.182;2023-08-12T05:15:09;18.55;66.45
75022;SHT31;63583;49.976;20.182;2023-08-12T05:17:34;18.61;67.30
75022;SHT31;63583;49.976;20.182;2023-08-12T05:20:00;18.99;65.94
75022;SHT31;63583;49.976;20.182;2023-08-12T05:22:26;19.16;66.13
75022;SHT31;63583;49.976;20.182;2023-08-12T05:24:51;19.23;65.36
75022;SHT31;63583;49.976;20.182;2023-08-12T05:27:17;19.26;64.39
75022;SHT31;63583;49.976;20.182;2023-08-12T05:29:42;19.40;64.41
75022;SHT31;63583;49.976;20.182;2023-08-12T05:32:08;19.48;64.32
75022;SHT31;63583;49.976;20.182;2023-08-12T05:34:34;19.48;64.14
75022;SHT31;63583;49.976;20.182;2023-08-12T05:36:59;19.54;63.75
75022;SHT31;63583;49.976;20.182;2023-08-12T05:39:25;19.62;64.94
75022;SHT31;63583;49.976;20.182;2023-08-12T05:41:50;19.86;64.14
75022;SHT31;63583;49.976;20.182;2023-08-12T05:44:17;20.05;64.81
75022;SHT31;63583;49.976;20.182;2023-08-12T05:46:43;20.19;63.74
75022;SHT31;63583;49.976;20.182;2023-08-12T05:49:09;20.16;63.63
75022;SHT31;63583;49.976;20.182;2023-08-12T05:51:35;20.29;63.59
75022;SHT31;63583;49.976;20.182;2023-08-12T05:54:00;20.37;64.44
75022;SHT31;63583;49.976;20.182;2023-08-12T05:56:26;20.33;64.06
75022;SHT31;63583;49.976;20.182;2023-08-12T05:58:52;20.44;63.90
75022;SHT31;63583;49.976;20.182;2023-08-12T06:01:19;20.34;63.92
75022;SHT31;63583;49.976;20.182;2023-08-12T06:03:44;20.37;65.67
75022;SHT31;63583;49.976;20.182;2023-08-12T06:06:10;20.55;64.65
75022;SHT31;63583;49.976;20.182;2023-08-12T06:08:36;20.68;64.24
75022;SHT31;63583;49.976;20.182;2023-08-12T06:11:01;20.84;63.63
75022;SHT31;63583;49.976;20.182;2023-08-12T06:13:27;20.92;63.52
75022;SHT31;63583;49.976;20.182;2023-08-12T06:15:53;21.08;62.20
75022;SHT31;63583;49.976;20.182;2023-08-12T06:18:19;21.19;62.08
75022;SHT31;63583;49.976;20.182;2023-08-12T06:20:44;21.08;62.80
75022;SHT31;63583;49.976;20.182;2023-08-12T06:23:10;21.22;60.87
75022;SHT31;63583;49.976;20.182;2023-08-12T06:25:36;21.39;61.76
75022;SHT31;63583;49.976;20.182;2023-08-12T06:28:02;21.51;61.01
75022;SHT31;63583;49.976;20.182;2023-08-12T06:30:30;21.50;60.71
75022;SHT31;63583;49.976;20.182;2023-08-12T06:32:56;21.68;61.43
75022;SHT31;63583;49.976;20.182;2023-08-12T06:35:21;21.68;59.80
75022;SHT31;63583;49.976;20.182;2023-08-12T06:37:47;21.76;60.98
75022;SHT31;63583;49.976;20.182;2023-08-12T06:40:13;21.74;60.61
75022;SHT31;63583;49.976;20.182;2023-08-12T06:42:38;21.76;58.86
75022;SHT31;63583;49.976;20.182;2023-08-12T06:45:04;21.86;60.46
75022;SHT31;63583;49.976;20.182;2023-08-12T06:47:30;21.81;58.94
75022;SHT31;63583;49.976;20.182;2023-08-12T06:49:56;21.93;58.88
75022;SHT31;63583;49.976;20.182;2023-08-12T06:52:24;22.00;57.94
75022;SHT31;63583;49.976;20.182;2023-08-12T06:54:50;22.01;58.01
75022;SHT31;63583;49.976;20.182;2023-08-12T06:57:16;21.78;60.50
75022;SHT31;63583;49.976;20.182;2023-08-12T06:59:42;21.81;60.00
75022;SHT31;63583;49.976;20.182;2023-08-12T07:02:09;21.87;58.78
75022;SHT31;63583;49.976;20.182;2023-08-12T07:04:35;21.74;59.58
75022;SHT31;63583;49.976;20.182;2023-08-12T07:07:03;21.86;59.90
75022;SHT31;63583;49.976;20.182;2023-08-12T07:09:30;21.86;60.36
75022;SHT31;63583;49.976;20.182;2023-08-12T07:11:55;21.98;60.19
75022;SHT31;63583;49.976;20.182;2023-08-12T07:14:21;22.09;59.92
75022;SHT31;63583;49.976;20.182;2023-08-12T07:16:47;22.16;59.99
75022;SHT31;63583;49.976;20.182;2023-08-12T07:19:13;22.28;58.78
75022;SHT31;63583;49.976;20.182;2023-08-12T07:21:40;22.32;59.56
75022;SHT31;63583;49.976;20.182;2023-08-12T07:24:06;21.97;59.05
75022;SHT31;63583;49.976;20.182;2023-08-12T07:26:34;22.18;60.01
75022;SHT31;63583;49.976;20.182;2023-08-12T07:29:00;22.29;58.98
75022;SHT31;63583;49.976;20.182;2023-08-12T07:31:27;22.36;58.86
75022;SHT31;63583;49.976;20.182;2023-08-12T07:33:52;22.38;59.23
75022;SHT31;63583;49.976;20.182;2023-08-12T07:36:18;22.62;58.73
75022;SHT31;63583;49.976;20.182;2023-08-12T07:38:43;22.79;58.96
75022;SHT31;63583;49.976;20.182;2023-08-12T07:41:09;22.77;57.99
75022;SHT31;63583;49.976;20.182;2023-08-12T07:43:35;22.76;58.08
75022;SHT31;63583;49.976;20.182;2023-08-12T07:46:01;22.73;57.51
75022;SHT31;63583;49.976;20.182;2023-08-12T07:48:26;22.56;59.06
75022;SHT31;63583;49.976;20.182;2023-08-12T07:50:59;22.70;58.61
75022;SHT31;63583;49.976;20.182;2023-08-12T07:53:25;22.87;59.53
75022;SHT31;63583;49.976;20.182;2023-08-12T07:55:51;22.67;59.22
75022;SHT31;63583;49.976;20.182;2023-08-12T07:58:17;22.87;60.51
75022;SHT31;63583;49.976;20.182;2023-08-12T08:00:43;22.93;58.93
75022;SHT31;63583;49.976;20.182;2023-08-12T08:03:08;22.94;59.00
75022;SHT31;63583;49.976;20.182;2023-08-12T08:05:34;22.96;58.79
75022;SHT31;63583;49.976;20.182;2023-08-12T08:08:00;23.03;58.95
75022;SHT31;63583;49.976;20.182;2023-08-12T08:10:26;23.07;57.55
75022;SHT31;63583;49.976;20.182;2023-08-12T08:12:51;22.97;59.91
75022;SHT31;63583;49.976;20.182;2023-08-12T08:15:17;23.12;59.15
75022;SHT31;63583;49.976;20.182;2023-08-12T08:17:43;23.25;57.73
75022;SHT31;63583;49.976;20.182;2023-08-12T08:20:09;23.31;57.19
75022;SHT31;63583;49.976;20.182;2023-08-12T08:22:36;23.34;56.86
75022;SHT31;63583;49.976;20.182;2023-08-12T08:25:02;23.37;58.28
75022;SHT31;63583;49.976;20.182;2023-08-12T08:27:27;23.52;54.99
75022;SHT31;63583;49.976;20.182;2023-08-12T08:29:53;23.52;55.00
75022;SHT31;63583;49.976;20.182;2023-08-12T08:32:19;23.58;54.72
75022;SHT31;63583;49.976;20.182;2023-08-12T08:34:45;23.70;54.36
75022;SHT31;63583;49.976;20.182;2023-08-12T08:37:10;23.66;52.75
75022;SHT31;63583;49.976;20.182;2023-08-12T08:39:36;23.62;52.94
75022;SHT31;63583;49.976;20.182;2023-08-12T08:42:04;23.80;52.64
75022;SHT31;63583;49.976;20.182;2023-08-12T08:44:33;23.58;52.49
75022;SHT31;63583;49.976;20.182;2023-08-12T08:46:59;23.72;52.50
75022;SHT31;63583;49.976;20.182;2023-08-12T08:49:30;23.82;51.49
75022;SHT31;63583;49.976;20.182;2023-08-12T08:51:58;23.79;53.52
75022;SHT31;63583;49.976;20.182;2023-08-12T08:54:25;23.87;51.50
75022;SHT31;63583;49.976;20.182;2023-08-12T08:56:51;23.79;51.98
75022;SHT31;63583;49.976;20.182;2023-08-12T08:59:17;23.96;51.28
75022;SHT31;63583;49.976;20.182;2023-08-12T09:01:43;23.95;52.11
75022;SHT31;63583;49.976;20.182;2023-08-12T09:04:12;23.96;52.12
75022;SHT31;63583;49.976;20.182;2023-08-12T09:06:39;23.90;51.22
75022;SHT31;63583;49.976;20.182;2023-08-12T09:09:10;24.00;49.56
75022;SHT31;63583;49.976;20.182;2023-08-12T09:11:38;24.06;49.43
75022;SHT31;63583;49.976;20.182;2023-08-12T09:14:04;23.96;50.05
75022;SHT31;63583;49.976;20.182;2023-08-12T09:16:30;24.00;51.21
75022;SHT31;63583;49.976;20.182;2023-08-12T09:18:57;23.80;50.22
75022;SHT31;63583;49.976;20.182;2023-08-12T09:21:23;24.04;50.54
75022;SHT31;63583;49.976;20.182;2023-08-12T09:23:49;24.09;51.51
75022;SHT31;63583;49.976;20.182;2023-08-12T09:26:19;24.09;51.62
75022;SHT31;63583;49.976;20.182;2023-08-12T09:28:47;24.30;50.77
75022;SHT31;63583;49.976;20.182;2023-08-12T09:31:24;24.33;50.51
75022;SHT31;63583;49.976;20.182;2023-08-12T09:33:51;24.35;49.60
75022;SHT31;63583;49.976;20.182;2023-08-12T09:36:17;24.31;49.37
75022;SHT31;63583;49.976;20.182;2023-08-12T09:38:44;24.34;49.31
75022;SHT31;63583;49.976;20.182;2023-08-12T09:41:09;24.23;49.70
75022;SHT31;63583;49.976;20.182;2023-08-12T09:43:40;24.25;49.20
75022;SHT31;63583;49.976;20.182;2023-08-12T09:46:06;24.27;48.77
75022;SHT31;63583;49.976;20.182;2023-08-12T09:48:32;24.12;50.28
75022;SHT31;63583;49.976;20.182;2023-08-12T09:50:57;24.21;50.71
75022;SHT31;63583;49.976;20.182;2023-08-12T09:53:24;24.18;52.45
75022;SHT31;63583;49.976;20.182;2023-08-12T09:55:52;24.03;50.51
75022;SHT31;63583;49.976;20.182;2023-08-12T09:58:18;24.20;50.78
75022;SHT31;63583;49.976;20.182;2023-08-12T10:00:46;24.41;50.45
75022;SHT31;63583;49.976;20.182;2023-08-12T10:03:13;24.44;49.40
75022;SHT31;63583;49.976;20.182;2023-08-12T10:05:39;24.60;49.64
75022;SHT31;63583;49.976;20.182;2023-08-12T10:08:07;24.55;50.52
75022;SHT31;63583;49.976;20.182;2023-08-12T10:10:34;24.54;48.93
75022;SHT31;63583;49.976;20.182;2023-08-12T10:13:01;24.48;50.43
75022;SHT31;63583;49.976;20.182;2023-08-12T10:15:27;24.50;49.13
75022;SHT31;63583;49.976;20.182;2023-08-12T10:17:54;24.64;50.57
75022;SHT31;63583;49.976;20.182;2023-08-12T10:20:22;24.64;48.79
75022;SHT31;63583;49.976;20.182;2023-08-12T10:22:51;24.72;49.25
75022;SHT31;63583;49.976;20.182;2023-08-12T10:25:20;24.64;49.88
75022;SHT31;63583;49.976;20.182;2023-08-12T10:27:49;24.67;48.49
75022;SHT31;63583;49.976;20.182;2023-08-12T10:30:15;24.67;50.69
75022;SHT31;63583;49.976;20.182;2023-08-12T10:32:42;24.71;49.51
75022;SHT31;63583;49.976;20.182;2023-08-12T10:35:08;24.71;48.53
75022;SHT31;63583;49.976;20.182;2023-08-12T10:37:34;24.76;50.11
75022;SHT31;63583;49.976;20.182;2023-08-12T10:40:20;24.86;51.50
75022;SHT31;63583;49.976;20.182;2023-08-12T10:42:48;25.08;50.36
75022;SHT31;63583;49.976;20.182;2023-08-12T10:45:15;25.23;50.64
75022;SHT31;63583;49.976;20.182;2023-08-12T10:47:43;25.38;51.06
75022;SHT31;63583;49.976;20.182;2023-08-12T10:50:21;25.48;48.22
75022;SHT31;63583;49.976;20.182;2023-08-12T10:52:47;25.47;50.86
75022;SHT31;63583;49.976;20.182;2023-08-12T10:55:23;25.27;48.32
75022;SHT31;63583;49.976;20.182;2023-08-12T10:57:50;25.31;48.06
75022;SHT31;63583;49.976;20.182;2023-08-12T11:00:18;25.34;49.13
75022;SHT31;63583;49.976;20.182;2023-08-12T11:02:51;25.16;48.60
75022;SHT31;63583;49.976;20.182;2023-08-12T11:05:18;25.19;48.04
75022;SHT31;63583;49.976;20.182;2023-08-12T11:07:55;25.24;47.84
75022;SHT31;63583;49.976;20.182;2023-08-12T11:10:22;25.08;48.75
75022;SHT31;63583;49.976;20.182;2023-08-12T11:15:17;25.22;50.88
75022;SHT31;63583;49.976;20.182;2023-08-12T11:17:45;25.36;47.91
75022;SHT31;63583;49.976;20.182;2023-08-12T11:20:12;25.34;47.99
75022;SHT31;63583;49.976;20.182;2023-08-12T11:22:40;25.38;48.43
75022;SHT31;63583;49.976;20.182;2023-08-12T11:25:14;25.40;49.29
75022;SHT31;63583;49.976;20.182;2023-08-12T11:27:44;25.37;47.92
75022;SHT31;63583;49.976;20.182;2023-08-12T11:30:11;25.44;49.46
75022;SHT31;63583;49.976;20.182;2023-08-12T11:32:38;25.50;49.51
75022;SHT31;63583;49.976;20.182;2023-08-12T11:35:06;25.61;48.34
75022;SHT31;63583;49.976;20.182;2023-08-12T11:37:33;25.67;46.73
75022;SHT31;63583;49.976;20.182;2023-08-12T11:40:01;25.86;48.51
75022;SHT31;63583;49.976;20.182;2023-08-12T11:42:28;25.73;46.96
75022;SHT31;63583;49.976;20.182;2023-08-12T11:44:54;25.78;47.32
75022;SHT31;63583;49.976;20.182;2023-08-12T11:47:20;25.86;48.30
75022;SHT31;63583;49.976;20.182;2023-08-12T11:49:45;25.81;46.71
75022;SHT31;63583;49.976;20.182;2023-08-12T11:52:11;25.70;45.75
75022;SHT31;63583;49.976;20.182;2023-08-12T11:54:38;25.84;47.03
75022;SHT31;63583;49.976;20.182;2023-08-12T11:57:04;25.80;47.02
75022;SHT31;63583;49.976;20.182;2023-08-12T11:59:30;25.75;47.57
75022;SHT31;63583;49.976;20.182;2023-08-12T12:01:56;25.65;48.03
75022;SHT31;63583;49.976;20.182;2023-08-12T12:04:22;25.63;47.02
75022;SHT31;63583;49.976;20.182;2023-08-12T12:06:47;25.71;49.15
75022;SHT31;63583;49.976;20.182;2023-08-12T12:09:14;25.71;48.72
75022;SHT31;63583;49.976;20.182;2023-08-12T12:11:41;25.74;48.00
75022;SHT31;63583;49.976;20.182;2023-08-12T12:14:08;25.74;48.74
75022;SHT31;63583;49.976;20.182;2023-08-12T12:19:03;25.98;46.86
75022;SHT31;63583;49.976;20.182;2023-08-12T12:21:38;25.94;45.05
75022;SHT31;63583;49.976;20.182;2023-08-12T12:24:05;25.88;46.13
75022;SHT31;63583;49.976;20.182;2023-08-12T12:26:32;25.94;47.02
75022;SHT31;63583;49.976;20.182;2023-08-12T12:28:57;25.94;49.47
75022;SHT31;63583;49.976;20.182;2023-08-12T12:31:23;26.08;48.45
75022;SHT31;63583;49.976;20.182;2023-08-12T12:33:49;25.89;46.11
75022;SHT31;63583;49.976;20.182;2023-08-12T12:36:14;25.96;46.84
75022;SHT31;63583;49.976;20.182;2023-08-12T12:38:40;26.16;46.94
75022;SHT31;63583;49.976;20.182;2023-08-12T12:41:05;26.08;45.82
75022;SHT31;63583;49.976;20.182;2023-08-12T12:43:31;25.96;47.78
75022;SHT31;63583;49.976;20.182;2023-08-12T12:45:56;26.08;46.27
75022;SHT31;63583;49.976;20.182;2023-08-12T12:48:22;26.09;48.53
75022;SHT31;63583;49.976;20.182;2023-08-12T12:50:48;26.16;45.29
75022;SHT31;63583;49.976;20.182;2023-08-12T12:53:13;26.23;46.23
75022;SHT31;63583;49.976;20.182;2023-08-12T12:55:39;26.25;46.33
75022;SHT31;63583;49.976;20.182;2023-08-12T12:58:05;26.26;45.76
75022;SHT31;63583;49.976;20.182;2023-08-12T13:00:30;26.29;46.59
75022;SHT31;63583;49.976;20.182;2023-08-12T13:02:56;26.40;47.33
75022;SHT31;63583;49.976;20.182;2023-08-12T13:05:21;26.43;46.41
75022;SHT31;63583;49.976;20.182;2023-08-12T13:07:47;26.42;46.01
75022;SHT31;63583;49.976;20.182;2023-08-12T13:10:13;26.54;45.50
75022;SHT31;63583;49.976;20.182;2023-08-12T13:12:38;26.40;46.30
75022;SHT31;63583;49.976;20.182;2023-08-12T13:15:04;26.57;47.18
75022;SHT31;63583;49.976;20.182;2023-08-12T13:17:30;26.52;45.02
75022;SHT31;63583;49.976;20.182;2023-08-12T13:19:56;26.33;47.03
75022;SHT31;63583;49.976;20.182;2023-08-12T13:22:21;26.47;47.25
75022;SHT31;63583;49.976;20.182;2023-08-12T13:24:47;26.65;47.73
75022;SHT31;63583;49.976;20.182;2023-08-12T13:27:12;26.56;46.43
75022;SHT31;63583;49.976;20.182;2023-08-12T13:29:38;26.46;46.42
75022;SHT31;63583;49.976;20.182;2023-08-12T13:32:04;26.44;46.73
75022;SHT31;63583;49.976;20.182;2023-08-12T13:34:29;26.50;44.68
75022;SHT31;63583;49.976;20.182;2023-08-12T13:36:55;26.23;47.75
75022;SHT31;63583;49.976;20.182;2023-08-12T13:39:21;26.32;44.70
75022;SHT31;63583;49.976;20.182;2023-08-12T13:41:47;26.18;45.29
75022;SHT31;63583;49.976;20.182;2023-08-12T13:44:12;26.23;46.87
75022;SHT31;63583;49.976;20.182;2023-08-12T13:46:38;26.29;45.62
75022;SHT31;63583;49.976;20.182;2023-08-12T13:49:04;26.39;45.45
75022;SHT31;63583;49.976;20.182;2023-08-12T13:51:30;26.35;45.77
75022;SHT31;63583;49.976;20.182;2023-08-12T13:53:56;26.19;45.68
75022;SHT31;63583;49.976;20.182;2023-08-12T13:56:21;26.12;45.60
75022;SHT31;63583;49.976;20.182;2023-08-12T13:58:47;26.21;46.79
75022;SHT31;63583;49.976;20.182;2023-08-12T14:01:13;26.32;45.14
75022;SHT31;63583;49.976;20.182;2023-08-12T14:03:38;26.35;45.92
75022;SHT31;63583;49.976;20.182;2023-08-12T14:06:04;26.37;47.63
75022;SHT31;63583;49.976;20.182;2023-08-12T14:08:30;26.52;47.35
75022;SHT31;63583;49.976;20.182;2023-08-12T14:10:56;26.53;45.58
75022;SHT31;63583;49.976;20.182;2023-08-12T14:13:22;26.63;45.05
75022;SHT31;63583;49.976;20.182;2023-08-12T14:15:47;26.56;46.54
75022;SHT31;63583;49.976;20.182;2023-08-12T14:18:13;26.39;44.82
75022;SHT31;63583;49.976;20.182;2023-08-12T14:20:40;26.40;43.94
75022;SHT31;63583;49.976;20.182;2023-08-12T14:23:06;26.49;44.46
75022;SHT31;63583;49.976;20.182;2023-08-12T14:25:31;26.57;44.78
75022;SHT31;63583;49.976;20.182;2023-08-12T14:27:57;26.61;45.29
75022;SHT31;63583;49.976;20.182;2023-08-12T14:30:24;26.50;44.48
75022;SHT31;63583;49.976;20.182;2023-08-12T14:32:53;26.57;43.47
75022;SHT31;63583;49.976;20.182;2023-08-12T14:35:19;26.39;44.78
75022;SHT31;63583;49.976;20.182;2023-08-12T14:37:44;26.33;44.57
75022;SHT31;63583;49.976;20.182;2023-08-12T14:40:10;26.36;45.85
75022;SHT31;63583;49.976;20.182;2023-08-12T14:42:36;26.33;46.11
75022;SHT31;63583;49.976;20.182;2023-08-12T14:45:02;26.47;45.55
75022;SHT31;63583;49.976;20.182;2023-08-12T14:47:28;26.61;45.19
75022;SHT31;63583;49.976;20.182;2023-08-12T14:49:54;26.40;46.35
75022;SHT31;63583;49.976;20.182;2023-08-12T14:52:20;26.40;45.80
75022;SHT31;63583;49.976;20.182;2023-08-12T14:54:46;26.53;45.78
75022;SHT31;63583;49.976;20.182;2023-08-12T14:57:12;26.49;47.05
75022;SHT31;63583;49.976;20.182;2023-08-12T14:59:38;26.49;46.59
75022;SHT31;63583;49.976;20.182;2023-08-12T15:02:04;26.42;46.72
75022;SHT31;63583;49.976;20.182;2023-08-12T15:04:30;26.46;46.97
75022;SHT31;63583;49.976;20.182;2023-08-12T15:06:55;26.40;48.05
75022;SHT31;63583;49.976;20.182;2023-08-12T15:09:22;26.23;48.57
75022;SHT31;63583;49.976;20.182;2023-08-12T15:11:47;26.35;47.88
75022;SHT31;63583;49.976;20.182;2023-08-12T15:14:13;26.42;46.26
75022;SHT31;63583;49.976;20.182;2023-08-12T15:16:38;26.31;46.47